This is the latest recevied weather packets stored in our database for station/object IW2HNF-3. If no packets are shown the sender has not sent any weather packets the latest 1 day(s).
| Time | Temp. | Humidity | Pressure | Rain* | Wind** | Luminosity | Snow |
|---|---|---|---|---|---|---|---|
| 1836274411 | 18.89° C | 93% | 1024.4 hPa | 0 mm | 1.34 m/s, 333° | - | - |
| 1836274287 | 18.89° C | 93% | 1024.4 hPa | 0 mm | 1.34 m/s, 344° | - | - |
| 1777998663 | 12.78° C | 95% | 1011.1 hPa | 1.52 mm | 0 m/s | - | - |
| 1777998037 | 12.78° C | 94% | 1011.2 hPa | 2.03 mm | 0.89 m/s, 3° | - | - |
| 1777997269 | 12.78° C | 94% | 1011.2 hPa | 2.03 mm | 0.89 m/s, 282° | - | - |
| 1777996262 | 12.78° C | 94% | 1011.3 hPa | 2.03 mm | 1.79 m/s, 77° | - | - |
| 1777995637 | 12.78° C | 94% | 1011.3 hPa | 1.52 mm | 0.89 m/s, 28° | - | - |
| 1777995061 | 12.78° C | 94% | 1011.3 hPa | 1.27 mm | 0.45 m/s, 27° | - | - |
| 1777994438 | 12.78° C | 94% | 1011.4 hPa | 0.51 mm | 0.45 m/s, 66° | - | - |
| 1777993862 | 12.78° C | 93% | 1011.5 hPa | 0.25 mm | 0.89 m/s, 56° | - | - |
| 1777993237 | 12.78° C | 93% | 1011.6 hPa | 0.25 mm | 0.45 m/s, 34° | - | - |
| 1777992662 | 13.33° C | 94% | 1011.5 hPa | 0 mm | 0.89 m/s, 50° | - | - |
| 1777992038 | 13.33° C | 94% | 1011.6 hPa | 0 mm | 1.34 m/s, 62° | - | - |
| 1777991462 | 13.33° C | 94% | 1011.6 hPa | 0 mm | 0.45 m/s, 45° | - | - |
| 1777990837 | 13.33° C | 94% | 1011.6 hPa | 0.25 mm | 0.45 m/s, 90° | - | - |
| 1777990261 | 12.78° C | 94% | 1011.7 hPa | 0.25 mm | 0.89 m/s, 90° | - | - |
| 1777990069 | 12.78° C | 94% | 1011.7 hPa | 0.25 mm | 0.89 m/s, 86° | - | - |
| 1777989061 | 12.78° C | 94% | 1011.8 hPa | 0.25 mm | 0.45 m/s, 58° | - | - |
| 1777988438 | 12.78° C | 94% | 1011.9 hPa | 0.25 mm | 0.89 m/s, 80° | - | - |
| 1777987862 | 12.78° C | 94% | 1012 hPa | 0.51 mm | 0.45 m/s, 29° | - | - |
| 1777987237 | 12.78° C | 94% | 1012 hPa | 0.25 mm | 0 m/s | - | - |
| 1777986662 | 12.78° C | 94% | 1012 hPa | 0.25 mm | 0.45 m/s, 107° | - | - |
| 1777986038 | 12.78° C | 94% | 1012 hPa | 0.25 mm | 0.89 m/s, 69° | - | - |
| 1777985463 | 12.78° C | 94% | 1012 hPa | 0.51 mm | 0.45 m/s, 113° | - | - |
| 1777984837 | 12.78° C | 93% | 1012.1 hPa | 1.02 mm | 0.89 m/s, 110° | - | - |
* Rain latest hour (hover to see other rain measurements)
** Current wind speed in m/s (hover to see current wind gust speed)